Holden Beach, NC (28462)

11:54 PM EST on February 11, 2016 (GMT -0500)
Winding River Plantation | | Change Station
CLOSE
Current Station
Personal Weather Station
Location: Bolivia, NC
Elevation: 16 ft
Nearby Weather Stations
Active Advisory: Winter Weather Advisory

Elev 16 ft 33.98 °N, 78.25 °W | Updated 8 minutes ago

Clear
Clear
28.2 °F
Feels Like 28 °F
N
0.0
Wind Variable Wind from ESE

Today
High -- | Low -- °F
--% Chance of Precip.
Yesterday
High -- | Low -- °F
Precip. -- in
Pressure 30.29 in
Visibility 10.0 miles
Clouds Clear
Windchill 28 °F
Dew Point 28 °F
Humidity 99%
Rainfall 0.00 in
Snow Depth Not available.
7:02 AM 5:53 PM
Waxing Crescent, 17% visible
METAR KSUT 120435Z AUTO 00000KT 10SM CLR 00/M02 A3029 RMK AO2 T10041023
Pressure 30.29 in
Visibility 10.0 miles
Clouds Clear
Windchill 28 °F
Dew Point 28 °F
Humidity 99%
Rainfall 0.00 in
Snow Depth Not available.
7:02 AM 5:53 PM
Waxing Crescent, 17% visible
METAR KSUT 120435Z AUTO 00000KT 10SM CLR 00/M02 A3029 RMK AO2 T10041023

10-Day Weather Forecast

Almanac

Astronomy

Feb. 11, 2016 Rise Set
Actual Time
Civil Twilight
Nautical Twilight
Astronomical Twilight
Moon
Length of Visible Light
Length of Day
Tomorrow will be .
, % of the Moon is Illuminated

Today's Extremes

State Highs State Lows

Community

WunderPhotos

Upload Photos

1,892,268 photos uploaded!

WunderBlog® & News

Nearby

Air Quality

  Air Quality AQ Index Pollutant
Not available.

Snow Depth

Station Depth Elevation

Earthquake Activity

City Distance Mag. Time & Date
Minimum magnitude displayed is 2.5.

Coastal Water Temperatures

Place Temperature

Stations

Nearby Weather Stations

Station Location Temp. Windchill Dew Point Humidity Wind Precip. Elev Updated Type
                   

Watches & Warnings

Winter Weather Advisory
Issued: 10:14 PM EST Feb. 11, 2016 – National Weather Service

... Winter Weather Advisory remains in effect from 5 am to 1 PM
EST Friday...

* locations... coastal Pender... New Hanover... Brunswick...
Darlington... Florence... Marion... and Horry counties.

* Hazard types... freezing rain... snow and sleet.

* Accumulations... ice accumulation of a trace to less than a
tenth of an inch. A light coating of snow and sleet is
possible.

* Timing... Friday morning through early afternoon.

* Impacts... roadways and walkways may become slippery. Untreated
bridges and overpasses will become dangerous.

* Winds... northeast 5 to 10 mph.

* Temperatures... around 30 degrees early Friday morning... rising
slowly through the 30s through early afternoon.

Precautionary/preparedness actions...

A Winter Weather Advisory means that periods of freezing rain...
snow... or sleet will cause travel difficulties. Be prepared for
slippery roads and use caution while driving.